PWSweather.com
Personal Weather Stations
Station Observations
WAIROAHB
Wairoa, Northern Hawkes Bay -NZ 4108

WairoaNorthern Hawkes Bay -NZ 4108

Lat: -39.04516934, Lon: 177.4263989

Elevation: 156

Station Type: WS3083

http://wairoa.net/weather/index.htm

High Low Average
Temperature 73.2°F22.9°C 59.0°F15.0°C 65.1°F18.4°C
Dew Point 65.8°F18.8°C 57.9°F14.4°C 61.9°F16.6°C
Winds 14.5 mph 23.3 kmh Calm Calm 6.0 mph WSW9.7 kmh WSW
Wind Gusts 19.7 mph31.7 kmh 1.6 mph2.6 kmh 11.0 mph17.7 kmh
Humidity 99% 73% 89%
Pressure 29.94 in1013.9 mb 29.54 in1000.3 mb -
Precipitation 0.01 in0.3 mm - -
Hour Temp Dew Point Humidity Winds Wind Gusts Pressure Precip Precip Rate Daily Precip Total
12:00 AM 61.2°F16.2°C 58.2°F14.6°C 90% 3.8 mph NW6.1 kmh NW 5.4 mph8.7 kmh 29.54 in1000.3 mb 0.00 in0.0 mm 0.00 in0.0 mm 0.00 in0.0 mm
12:10 AM 61.0°F16.1°C 58.3°F14.6°C 91% 3.1 mph NNW5.0 kmh NNW 6.0 mph9.7 kmh 29.55 in1000.7 mb 0.00 in0.0 mm 0.00 in0.0 mm 0.00 in0.0 mm
12:20 AM 60.8°F16.0°C 58.5°F14.7°C 92% 2.2 mph NW3.5 kmh NW 5.4 mph8.7 kmh 29.55 in1000.7 mb 0.00 in0.0 mm 0.00 in0.0 mm 0.00 in0.0 mm
12:30 AM 60.6°F15.9°C 58.6°F14.8°C 93% 2.2 mph NW3.5 kmh NW 4.5 mph7.2 kmh 29.55 in1000.7 mb 0.00 in0.0 mm 0.00 in0.0 mm 0.00 in0.0 mm
12:40 AM 60.3°F15.7°C 58.2°F14.6°C 93% 1.6 mph NNW2.6 kmh NNW 4.5 mph7.2 kmh 29.55 in1000.7 mb 0.00 in0.0 mm 0.00 in0.0 mm 0.00 in0.0 mm
12:50 AM 60.1°F15.6°C 58.4°F14.7°C 94% 1.6 mph NNW2.6 kmh NNW 3.8 mph6.1 kmh 29.55 in1000.7 mb 0.00 in0.0 mm 0.00 in0.0 mm 0.00 in0.0 mm
01:00 AM 59.9°F15.5°C 58.2°F14.6°C 94% 2.2 mph NW3.5 kmh NW 5.4 mph8.7 kmh 29.55 in1000.7 mb 0.00 in0.0 mm 0.00 in0.0 mm 0.00 in0.0 mm
01:10 AM 59.5°F15.3°C 58.1°F14.5°C 95% 2.2 mph NW3.5 kmh NW 5.4 mph8.7 kmh 29.54 in1000.3 mb 0.00 in0.0 mm 0.00 in0.0 mm 0.00 in0.0 mm
01:20 AM 59.2°F15.1°C 58.1°F14.5°C 96% 3.8 mph NW6.1 kmh NW 6.0 mph9.7 kmh 29.54 in1000.3 mb 0.00 in0.0 mm 0.00 in0.0 mm 0.00 in0.0 mm
01:30 AM 59.0°F15.0°C 57.9°F14.4°C 96% 3.1 mph NW5.0 kmh NW 6.0 mph9.7 kmh 29.54 in1000.3 mb 0.00 in0.0 mm 0.00 in0.0 mm 0.00 in0.0 mm
01:40 AM 59.0°F15.0°C 58.2°F14.6°C 97% 3.1 mph NW5.0 kmh NW 6.9 mph11.1 kmh 29.55 in1000.7 mb 0.00 in0.0 mm 0.00 in0.0 mm 0.00 in0.0 mm
01:50 AM 59.4°F15.2°C 58.5°F14.7°C 97% 3.8 mph NW6.1 kmh NW 6.0 mph9.7 kmh 29.55 in1000.7 mb 0.00 in0.0 mm 0.00 in0.0 mm 0.00 in0.0 mm
02:00 AM 59.5°F15.3°C 58.7°F14.8°C 97% 4.5 mph NW7.2 kmh NW 6.9 mph11.1 kmh 29.54 in1000.3 mb 0.00 in0.0 mm 0.00 in0.0 mm 0.00 in0.0 mm
02:10 AM 59.7°F15.4°C 58.9°F14.9°C 97% 4.5 mph NW7.2 kmh NW 7.6 mph12.2 kmh 29.54 in1000.3 mb 0.00 in0.0 mm 0.00 in0.0 mm 0.00 in0.0 mm
02:20 AM 59.9°F15.5°C 59.1°F15.1°C 97% 3.1 mph NNW5.0 kmh NNW 7.6 mph12.2 kmh 29.55 in1000.7 mb 0.00 in0.0 mm 0.00 in0.0 mm 0.00 in0.0 mm
02:30 AM 60.1°F15.6°C 59.2°F15.1°C 97% 2.2 mph NW3.5 kmh NW 5.4 mph8.7 kmh 29.55 in1000.7 mb 0.00 in0.0 mm 0.00 in0.0 mm 0.00 in0.0 mm
02:40 AM 59.9°F15.5°C 59.1°F15.1°C 97% 2.2 mph NW3.5 kmh NW 5.4 mph8.7 kmh 29.55 in1000.7 mb 0.00 in0.0 mm 0.00 in0.0 mm 0.00 in0.0 mm
02:50 AM 60.8°F16.0°C 60.0°F15.6°C 97% 3.8 mph W6.1 kmh W 7.6 mph12.2 kmh 29.56 in1001.0 mb 0.00 in0.0 mm 0.00 in0.0 mm 0.00 in0.0 mm
03:00 AM 63.0°F17.2°C 62.1°F16.7°C 97% 6.0 mph WSW9.7 kmh WSW 9.2 mph14.8 kmh 29.56 in1001.0 mb 0.00 in0.0 mm 0.00 in0.0 mm 0.00 in0.0 mm
03:10 AM 63.5°F17.5°C 62.7°F17.1°C 97% 2.2 mph WSW3.5 kmh WSW 9.2 mph14.8 kmh 29.56 in1001.0 mb 0.00 in0.0 mm 0.00 in0.0 mm 0.00 in0.0 mm
03:20 AM 63.1°F17.3°C 62.3°F16.8°C 97% Calm Calm 3.8 mph6.1 kmh 29.56 in1001.0 mb 0.00 in0.0 mm 0.00 in0.0 mm 0.00 in0.0 mm
03:30 AM 62.4°F16.9°C 61.9°F16.6°C 98% Calm Calm 4.5 mph7.2 kmh 29.57 in1001.4 mb 0.00 in0.0 mm 0.00 in0.0 mm 0.00 in0.0 mm
03:40 AM 61.3°F16.3°C 60.8°F16.0°C 98% 3.1 mph NW5.0 kmh NW 4.5 mph7.2 kmh 29.57 in1001.4 mb 0.00 in0.0 mm 0.00 in0.0 mm 0.00 in0.0 mm
03:50 AM 60.6°F15.9°C 60.4°F15.8°C 99% 2.2 mph NNW3.5 kmh NNW 4.5 mph7.2 kmh 29.58 in1001.7 mb 0.00 in0.0 mm 0.00 in0.0 mm 0.00 in0.0 mm
04:00 AM 60.6°F15.9°C 60.4°F15.8°C 99% 1.6 mph N2.6 kmh N 3.8 mph6.1 kmh 29.58 in1001.7 mb 0.00 in0.0 mm 0.00 in0.0 mm 0.00 in0.0 mm
04:10 AM 60.6°F15.9°C 60.4°F15.8°C 99% Calm Calm 3.1 mph5.0 kmh 29.58 in1001.7 mb 0.00 in0.0 mm 0.00 in0.0 mm 0.00 in0.0 mm
04:20 AM 60.8°F16.0°C 60.2°F15.7°C 98% Calm Calm 1.6 mph2.6 kmh 29.59 in1002.0 mb 0.00 in0.0 mm 0.00 in0.0 mm 0.00 in0.0 mm
04:30 AM 60.8°F16.0°C 60.2°F15.7°C 98% 2.2 mph NW3.5 kmh NW 3.1 mph5.0 kmh 29.59 in1002.0 mb 0.00 in0.0 mm 0.00 in0.0 mm 0.00 in0.0 mm
04:40 AM 60.8°F16.0°C 60.2°F15.7°C 98% Calm Calm 3.8 mph6.1 kmh 29.60 in1002.4 mb 0.00 in0.0 mm 0.00 in0.0 mm 0.00 in0.0 mm
04:50 AM 60.8°F16.0°C 60.2°F15.7°C 98% 0.7 mph N1.1 kmh N 3.1 mph5.0 kmh 29.60 in1002.4 mb 0.01 in0.3 mm 0.06 in1.5 mm 0.01 in0.3 mm
05:00 AM 60.6°F15.9°C 60.4°F15.8°C 99% 3.1 mph NNE5.0 kmh NNE 6.0 mph9.7 kmh 29.60 in1002.4 mb 0.01 in0.3 mm 0.00 in0.0 mm 0.01 in0.3 mm
05:10 AM 60.4°F15.8°C 60.2°F15.7°C 99% 1.6 mph NNE2.6 kmh NNE 6.0 mph9.7 kmh 29.60 in1002.4 mb 0.01 in0.3 mm 0.00 in0.0 mm 0.01 in0.3 mm
05:20 AM 60.6°F15.9°C 60.4°F15.8°C 99% 2.2 mph N3.5 kmh N 3.1 mph5.0 kmh 29.61 in1002.7 mb 0.01 in0.3 mm 0.00 in0.0 mm 0.01 in0.3 mm
05:30 AM 60.8°F16.0°C 60.2°F15.7°C 98% 2.2 mph NNW3.5 kmh NNW 3.8 mph6.1 kmh 29.61 in1002.7 mb 0.01 in0.3 mm 0.00 in0.0 mm 0.01 in0.3 mm
05:40 AM 60.8°F16.0°C 60.2°F15.7°C 98% 2.2 mph NNW3.5 kmh NNW 5.4 mph8.7 kmh 29.62 in1003.0 mb 0.01 in0.3 mm 0.00 in0.0 mm 0.01 in0.3 mm
05:50 AM 61.0°F16.1°C 60.4°F15.8°C 98% 0.7 mph NW1.1 kmh NW 3.1 mph5.0 kmh 29.62 in1003.0 mb 0.00 in0.0 mm 0.00 in0.0 mm 0.01 in0.3 mm
06:00 AM 61.3°F16.3°C 60.8°F16.0°C 98% 2.2 mph NW3.5 kmh NW 4.5 mph7.2 kmh 29.62 in1003.0 mb 0.00 in0.0 mm 0.00 in0.0 mm 0.01 in0.3 mm
06:10 AM 61.7°F16.5°C 61.1°F16.2°C 98% 2.2 mph NW3.5 kmh NW 4.5 mph7.2 kmh 29.62 in1003.0 mb 0.00 in0.0 mm 0.00 in0.0 mm 0.01 in0.3 mm
06:20 AM 62.2°F16.8°C 61.7°F16.5°C 98% 0.7 mph N1.1 kmh N 5.4 mph8.7 kmh 29.63 in1003.4 mb 0.00 in0.0 mm 0.00 in0.0 mm 0.01 in0.3 mm
06:30 AM 62.8°F17.1°C 61.9°F16.6°C 97% 1.6 mph NNW2.6 kmh NNW 3.8 mph6.1 kmh 29.63 in1003.4 mb 0.00 in0.0 mm 0.00 in0.0 mm 0.01 in0.3 mm
06:40 AM 63.3°F17.4°C 62.5°F16.9°C 97% 3.8 mph NNW6.1 kmh NNW 5.4 mph8.7 kmh 29.63 in1003.4 mb 0.00 in0.0 mm 0.00 in0.0 mm 0.01 in0.3 mm
06:50 AM 64.2°F17.9°C 63.1°F17.3°C 96% 1.6 mph NNW2.6 kmh NNW 5.4 mph8.7 kmh 29.64 in1003.7 mb 0.00 in0.0 mm 0.00 in0.0 mm 0.01 in0.3 mm
07:00 AM 65.7°F18.7°C 63.6°F17.6°C 93% 3.1 mph NNW5.0 kmh NNW 6.9 mph11.1 kmh 29.65 in1004.1 mb 0.00 in0.0 mm 0.00 in0.0 mm 0.01 in0.3 mm
07:10 AM 65.7°F18.7°C 63.0°F17.2°C 91% 3.1 mph NW5.0 kmh NW 5.4 mph8.7 kmh 29.66 in1004.4 mb 0.00 in0.0 mm 0.00 in0.0 mm 0.01 in0.3 mm
07:20 AM 66.2°F19.0°C 63.2°F17.3°C 90% 2.2 mph N3.5 kmh N 4.5 mph7.2 kmh 29.66 in1004.4 mb 0.00 in0.0 mm 0.00 in0.0 mm 0.01 in0.3 mm
07:30 AM 67.1°F19.5°C 63.8°F17.7°C 89% 4.5 mph N7.2 kmh N 5.4 mph8.7 kmh 29.66 in1004.4 mb 0.00 in0.0 mm 0.00 in0.0 mm 0.01 in0.3 mm
07:40 AM 68.5°F20.3°C 64.5°F18.1°C 87% 3.8 mph NNW6.1 kmh NNW 6.0 mph9.7 kmh 29.67 in1004.7 mb 0.00 in0.0 mm 0.00 in0.0 mm 0.01 in0.3 mm
07:50 AM 72.0°F22.2°C 65.8°F18.8°C 81% Calm Calm 4.5 mph7.2 kmh 29.67 in1004.7 mb 0.00 in0.0 mm 0.00 in0.0 mm 0.01 in0.3 mm
08:00 AM 73.2°F22.9°C 64.1°F17.8°C 73% 7.6 mph WSW12.2 kmh WSW 9.8 mph15.8 kmh 29.67 in1004.7 mb 0.00 in0.0 mm 0.00 in0.0 mm 0.01 in0.3 mm
08:10 AM 71.1°F21.7°C 63.1°F17.3°C 76% 5.4 mph WSW8.7 kmh WSW 9.8 mph15.8 kmh 29.68 in1005.1 mb 0.00 in0.0 mm 0.00 in0.0 mm 0.01 in0.3 mm
08:20 AM 71.2°F21.8°C 63.3°F17.4°C 76% 7.6 mph WSW12.2 kmh WSW 11.4 mph18.3 kmh 29.68 in1005.1 mb 0.00 in0.0 mm 0.00 in0.0 mm 0.01 in0.3 mm
08:30 AM 71.1°F21.7°C 63.1°F17.3°C 76% 5.4 mph SW8.7 kmh SW 12.1 mph19.5 kmh 29.68 in1005.1 mb 0.00 in0.0 mm 0.00 in0.0 mm 0.01 in0.3 mm
08:40 AM 70.2°F21.2°C 63.0°F17.2°C 78% 8.3 mph WSW13.4 kmh WSW 11.4 mph18.3 kmh 29.69 in1005.4 mb 0.00 in0.0 mm 0.00 in0.0 mm 0.01 in0.3 mm
08:50 AM 69.6°F20.9°C 63.6°F17.6°C 81% 6.9 mph WSW11.1 kmh WSW 13.6 mph21.9 kmh 29.70 in1005.8 mb 0.00 in0.0 mm 0.00 in0.0 mm 0.01 in0.3 mm
09:00 AM 70.0°F21.1°C 63.9°F17.7°C 81% 6.0 mph SW9.7 kmh SW 10.7 mph17.2 kmh 29.70 in1005.8 mb 0.00 in0.0 mm 0.00 in0.0 mm 0.01 in0.3 mm
09:10 AM 69.6°F20.9°C 64.6°F18.1°C 84% 9.8 mph WSW15.8 kmh WSW 13.6 mph21.9 kmh 29.70 in1005.8 mb 0.00 in0.0 mm 0.00 in0.0 mm 0.01 in0.3 mm
09:20 AM 69.3°F20.7°C 64.6°F18.1°C 85% 6.9 mph W11.1 kmh W 12.1 mph19.5 kmh 29.71 in1006.1 mb 0.00 in0.0 mm 0.00 in0.0 mm 0.01 in0.3 mm
09:30 AM 69.3°F20.7°C 64.2°F17.9°C 84% 3.8 mph W6.1 kmh W 11.4 mph18.3 kmh 29.71 in1006.1 mb 0.00 in0.0 mm 0.00 in0.0 mm 0.01 in0.3 mm
09:40 AM 69.4°F20.8°C 64.8°F18.2°C 85% 7.6 mph WSW12.2 kmh WSW 12.1 mph19.5 kmh 29.72 in1006.4 mb 0.00 in0.0 mm 0.00 in0.0 mm 0.01 in0.3 mm
09:50 AM 68.5°F20.3°C 64.2°F17.9°C 86% 9.2 mph W14.8 kmh W 15.2 mph24.5 kmh 29.72 in1006.4 mb 0.00 in0.0 mm 0.00 in0.0 mm 0.01 in0.3 mm
10:00 AM 67.8°F19.9°C 64.5°F18.1°C 89% 9.2 mph W14.8 kmh W 15.9 mph25.6 kmh 29.73 in1006.8 mb 0.00 in0.0 mm 0.00 in0.0 mm 0.01 in0.3 mm
10:10 AM 67.8°F19.9°C 65.1°F18.4°C 91% 9.2 mph SW14.8 kmh SW 15.9 mph25.6 kmh 29.73 in1006.8 mb 0.00 in0.0 mm 0.00 in0.0 mm 0.01 in0.3 mm
10:20 AM 68.7°F20.4°C 65.4°F18.6°C 89% 10.7 mph SW17.2 kmh SW 15.9 mph25.6 kmh 29.74 in1007.1 mb 0.00 in0.0 mm 0.00 in0.0 mm 0.01 in0.3 mm
10:30 AM 68.9°F20.5°C 64.9°F18.3°C 87% 7.6 mph WSW12.2 kmh WSW 19.7 mph31.7 kmh 29.74 in1007.1 mb 0.00 in0.0 mm 0.00 in0.0 mm 0.01 in0.3 mm
10:40 AM 68.9°F20.5°C 64.6°F18.1°C 86% 9.2 mph W14.8 kmh W 19.0 mph30.6 kmh 29.74 in1007.1 mb 0.00 in0.0 mm 0.00 in0.0 mm 0.01 in0.3 mm
10:50 AM 68.7°F20.4°C 64.4°F18.0°C 86% 10.7 mph WNW17.2 kmh WNW 16.8 mph27.0 kmh 29.75 in1007.5 mb 0.00 in0.0 mm 0.00 in0.0 mm 0.01 in0.3 mm
11:00 AM 69.3°F20.7°C 64.9°F18.3°C 86% 14.5 mph SW23.3 kmh SW 18.3 mph29.5 kmh 29.75 in1007.5 mb 0.00 in0.0 mm 0.00 in0.0 mm 0.01 in0.3 mm
11:10 AM 69.1°F20.6°C 64.7°F18.2°C 86% 10.7 mph WSW17.2 kmh WSW 19.0 mph30.6 kmh 29.75 in1007.5 mb 0.00 in0.0 mm 0.00 in0.0 mm 0.01 in0.3 mm
11:20 AM 70.0°F21.1°C 64.6°F18.1°C 83% 12.1 mph W19.5 kmh W 16.8 mph27.0 kmh 29.76 in1007.8 mb 0.00 in0.0 mm 0.00 in0.0 mm 0.01 in0.3 mm
11:30 AM 69.8°F21.0°C 64.1°F17.8°C 82% 9.2 mph WSW14.8 kmh WSW 19.7 mph31.7 kmh 29.76 in1007.8 mb 0.00 in0.0 mm 0.00 in0.0 mm 0.01 in0.3 mm
11:40 AM 70.0°F21.1°C 64.3°F17.9°C 82% 12.1 mph WSW19.5 kmh WSW 16.8 mph27.0 kmh 29.76 in1007.8 mb 0.00 in0.0 mm 0.00 in0.0 mm 0.01 in0.3 mm
11:50 AM 69.6°F20.9°C 64.3°F17.9°C 83% 14.5 mph WSW23.3 kmh WSW 19.7 mph31.7 kmh 29.76 in1007.8 mb 0.00 in0.0 mm 0.00 in0.0 mm 0.01 in0.3 mm
12:00 PM 69.4°F20.8°C 64.1°F17.8°C 83% 9.2 mph NW14.8 kmh NW 19.7 mph31.7 kmh 29.76 in1007.8 mb 0.00 in0.0 mm 0.00 in0.0 mm 0.01 in0.3 mm
12:10 PM 69.6°F20.9°C 64.6°F18.1°C 84% 8.3 mph WSW13.4 kmh WSW 16.8 mph27.0 kmh 29.77 in1008.1 mb 0.00 in0.0 mm 0.00 in0.0 mm 0.01 in0.3 mm
12:20 PM 70.2°F21.2°C 65.1°F18.4°C 84% 11.4 mph WSW18.3 kmh WSW 17.4 mph28.0 kmh 29.76 in1007.8 mb 0.00 in0.0 mm 0.00 in0.0 mm 0.01 in0.3 mm
12:30 PM 69.8°F21.0°C 64.4°F18.0°C 83% 10.7 mph W17.2 kmh W 17.4 mph28.0 kmh 29.77 in1008.1 mb 0.00 in0.0 mm 0.00 in0.0 mm 0.01 in0.3 mm
12:40 PM 69.3°F20.7°C 64.6°F18.1°C 85% 8.3 mph SW13.4 kmh SW 15.2 mph24.5 kmh 29.78 in1008.5 mb 0.00 in0.0 mm 0.00 in0.0 mm 0.01 in0.3 mm
12:50 PM 68.5°F20.3°C 63.9°F17.7°C 85% 10.7 mph WSW17.2 kmh WSW 18.3 mph29.5 kmh 29.78 in1008.5 mb 0.00 in0.0 mm 0.00 in0.0 mm 0.01 in0.3 mm
01:00 PM 68.2°F20.1°C 63.9°F17.7°C 86% 8.3 mph WSW13.4 kmh WSW 16.8 mph27.0 kmh 29.79 in1008.8 mb 0.00 in0.0 mm 0.00 in0.0 mm 0.01 in0.3 mm
01:10 PM 67.6°F19.8°C 64.3°F17.9°C 89% 12.1 mph WSW19.5 kmh WSW 19.7 mph31.7 kmh 29.79 in1008.8 mb 0.00 in0.0 mm 0.00 in0.0 mm 0.01 in0.3 mm
01:20 PM 68.0°F20.0°C 64.3°F17.9°C 88% 7.6 mph SW12.2 kmh SW 15.9 mph25.6 kmh 29.80 in1009.1 mb 0.00 in0.0 mm 0.00 in0.0 mm 0.01 in0.3 mm
01:30 PM 68.2°F20.1°C 64.2°F17.9°C 87% 9.8 mph WSW15.8 kmh WSW 13.0 mph20.9 kmh 29.80 in1009.1 mb 0.00 in0.0 mm 0.00 in0.0 mm 0.01 in0.3 mm
01:40 PM 67.6°F19.8°C 64.0°F17.8°C 88% 6.0 mph WSW9.7 kmh WSW 14.5 mph23.3 kmh 29.81 in1009.5 mb 0.00 in0.0 mm 0.00 in0.0 mm 0.01 in0.3 mm
01:50 PM 67.5°F19.7°C 64.5°F18.1°C 90% 10.7 mph WSW17.2 kmh WSW 14.5 mph23.3 kmh 29.81 in1009.5 mb 0.00 in0.0 mm 0.00 in0.0 mm 0.01 in0.3 mm
02:00 PM 68.0°F20.0°C 64.3°F17.9°C 88% 6.0 mph WNW9.7 kmh WNW 14.5 mph23.3 kmh 29.81 in1009.5 mb 0.00 in0.0 mm 0.00 in0.0 mm 0.01 in0.3 mm
02:10 PM 67.8°F19.9°C 64.5°F18.1°C 89% 6.9 mph NW11.1 kmh NW 12.1 mph19.5 kmh 29.81 in1009.5 mb 0.00 in0.0 mm 0.00 in0.0 mm 0.01 in0.3 mm
02:20 PM 67.6°F19.8°C 64.3°F17.9°C 89% 4.5 mph WSW7.2 kmh WSW 10.7 mph17.2 kmh 29.81 in1009.5 mb 0.00 in0.0 mm 0.00 in0.0 mm 0.01 in0.3 mm
02:30 PM 67.6°F19.8°C 64.3°F17.9°C 89% 6.0 mph SW9.7 kmh SW 9.8 mph15.8 kmh 29.82 in1009.8 mb 0.00 in0.0 mm 0.00 in0.0 mm 0.01 in0.3 mm
02:40 PM 67.6°F19.8°C 64.3°F17.9°C 89% 5.4 mph W8.7 kmh W 9.2 mph14.8 kmh 29.82 in1009.8 mb 0.00 in0.0 mm 0.00 in0.0 mm 0.01 in0.3 mm
02:50 PM 68.0°F20.0°C 64.7°F18.2°C 89% 5.4 mph SW8.7 kmh SW 8.3 mph13.4 kmh 29.82 in1009.8 mb 0.00 in0.0 mm 0.00 in0.0 mm 0.01 in0.3 mm
03:00 PM 67.6°F19.8°C 64.3°F17.9°C 89% 7.6 mph WSW12.2 kmh WSW 10.7 mph17.2 kmh 29.82 in1009.8 mb 0.00 in0.0 mm 0.00 in0.0 mm 0.01 in0.3 mm
03:10 PM 69.1°F20.6°C 65.1°F18.4°C 87% 7.6 mph SW12.2 kmh SW 11.4 mph18.3 kmh 29.82 in1009.8 mb 0.00 in0.0 mm 0.00 in0.0 mm 0.01 in0.3 mm
03:20 PM 71.8°F22.1°C 65.3°F18.5°C 80% 6.9 mph SSW11.1 kmh SSW 11.4 mph18.3 kmh 29.82 in1009.8 mb 0.00 in0.0 mm 0.00 in0.0 mm 0.01 in0.3 mm
03:30 PM 69.8°F21.0°C 64.1°F17.8°C 82% 5.4 mph SSW8.7 kmh SSW 11.4 mph18.3 kmh 29.82 in1009.8 mb 0.00 in0.0 mm 0.00 in0.0 mm 0.01 in0.3 mm
03:40 PM 69.4°F20.8°C 64.4°F18.0°C 84% 6.0 mph WSW9.7 kmh WSW 9.8 mph15.8 kmh 29.82 in1009.8 mb 0.00 in0.0 mm 0.00 in0.0 mm 0.01 in0.3 mm
03:50 PM 69.6°F20.9°C 64.6°F18.1°C 84% 5.4 mph NW8.7 kmh NW 10.7 mph17.2 kmh 29.82 in1009.8 mb 0.00 in0.0 mm 0.00 in0.0 mm 0.01 in0.3 mm
04:00 PM 69.1°F20.6°C 64.4°F18.0°C 85% 9.2 mph SW14.8 kmh SW 12.1 mph19.5 kmh 29.82 in1009.8 mb 0.00 in0.0 mm 0.00 in0.0 mm 0.01 in0.3 mm
04:10 PM 69.4°F20.8°C 64.4°F18.0°C 84% 6.9 mph WSW11.1 kmh WSW 12.1 mph19.5 kmh 29.81 in1009.5 mb 0.00 in0.0 mm 0.00 in0.0 mm 0.01 in0.3 mm
04:20 PM 68.5°F20.3°C 63.9°F17.7°C 85% 6.9 mph WSW11.1 kmh WSW 12.1 mph19.5 kmh 29.81 in1009.5 mb 0.00 in0.0 mm 0.00 in0.0 mm 0.01 in0.3 mm
04:30 PM 68.4°F20.2°C 64.0°F17.8°C 86% 6.9 mph SW11.1 kmh SW 11.4 mph18.3 kmh 29.82 in1009.8 mb 0.00 in0.0 mm 0.00 in0.0 mm 0.01 in0.3 mm
04:40 PM 67.5°F19.7°C 63.8°F17.7°C 88% 7.6 mph WSW12.2 kmh WSW 11.4 mph18.3 kmh 29.82 in1009.8 mb 0.00 in0.0 mm 0.00 in0.0 mm 0.01 in0.3 mm
04:50 PM 67.5°F19.7°C 63.5°F17.5°C 87% 9.8 mph WSW15.8 kmh WSW 12.1 mph19.5 kmh 29.82 in1009.8 mb 0.00 in0.0 mm 0.00 in0.0 mm 0.01 in0.3 mm
05:00 PM 67.1°F19.5°C 63.8°F17.7°C 89% 6.9 mph WSW11.1 kmh WSW 11.4 mph18.3 kmh 29.82 in1009.8 mb 0.00 in0.0 mm 0.00 in0.0 mm 0.01 in0.3 mm
05:10 PM 66.2°F19.0°C 62.9°F17.2°C 89% 9.2 mph SW14.8 kmh SW 13.0 mph20.9 kmh 29.82 in1009.8 mb 0.00 in0.0 mm 0.00 in0.0 mm 0.01 in0.3 mm
05:20 PM 66.4°F19.1°C 63.1°F17.3°C 89% 6.0 mph WSW9.7 kmh WSW 13.0 mph20.9 kmh 29.83 in1010.2 mb 0.00 in0.0 mm 0.00 in0.0 mm 0.01 in0.3 mm
05:30 PM 66.0°F18.9°C 63.3°F17.4°C 91% 9.2 mph SW14.8 kmh SW 13.6 mph21.9 kmh 29.83 in1010.2 mb 0.00 in0.0 mm 0.00 in0.0 mm 0.01 in0.3 mm
05:40 PM 65.7°F18.7°C 63.3°F17.4°C 92% 7.6 mph SW12.2 kmh SW 15.2 mph24.5 kmh 29.84 in1010.5 mb 0.00 in0.0 mm 0.00 in0.0 mm 0.01 in0.3 mm
05:50 PM 65.7°F18.7°C 63.0°F17.2°C 91% 9.8 mph WSW15.8 kmh WSW 14.5 mph23.3 kmh 29.85 in1010.8 mb 0.00 in0.0 mm 0.00 in0.0 mm 0.01 in0.3 mm
06:00 PM 65.1°F18.4°C 62.5°F16.9°C 91% 7.6 mph S12.2 kmh S 17.4 mph28.0 kmh 29.85 in1010.8 mb 0.00 in0.0 mm 0.00 in0.0 mm 0.01 in0.3 mm
06:10 PM 65.3°F18.5°C 62.3°F16.8°C 90% 5.4 mph NW8.7 kmh NW 15.2 mph24.5 kmh 29.86 in1011.2 mb 0.00 in0.0 mm 0.00 in0.0 mm 0.01 in0.3 mm
06:20 PM 64.6°F18.1°C 61.6°F16.4°C 90% 9.8 mph W15.8 kmh W 15.9 mph25.6 kmh 29.86 in1011.2 mb 0.00 in0.0 mm 0.00 in0.0 mm 0.01 in0.3 mm
06:30 PM 64.6°F18.1°C 61.6°F16.4°C 90% 9.2 mph W14.8 kmh W 15.2 mph24.5 kmh 29.86 in1011.2 mb 0.00 in0.0 mm 0.00 in0.0 mm 0.01 in0.3 mm
06:40 PM 63.9°F17.7°C 61.8°F16.6°C 93% 4.5 mph WSW7.2 kmh WSW 13.6 mph21.9 kmh 29.87 in1011.5 mb 0.00 in0.0 mm 0.00 in0.0 mm 0.01 in0.3 mm
06:50 PM 64.2°F17.9°C 62.2°F16.8°C 93% 8.3 mph W13.4 kmh W 13.6 mph21.9 kmh 29.88 in1011.9 mb 0.00 in0.0 mm 0.00 in0.0 mm 0.01 in0.3 mm
07:00 PM 64.2°F17.9°C 61.6°F16.4°C 91% 10.7 mph WSW17.2 kmh WSW 18.3 mph29.5 kmh 29.88 in1011.9 mb 0.00 in0.0 mm 0.00 in0.0 mm 0.01 in0.3 mm
07:10 PM 64.4°F18.0°C 60.8°F16.0°C 88% 12.1 mph W19.5 kmh W 18.3 mph29.5 kmh 29.89 in1012.2 mb 0.00 in0.0 mm 0.00 in0.0 mm 0.01 in0.3 mm
07:20 PM 64.4°F18.0°C 60.5°F15.8°C 87% 7.6 mph W12.2 kmh W 15.2 mph24.5 kmh 29.89 in1012.2 mb 0.00 in0.0 mm 0.00 in0.0 mm 0.01 in0.3 mm
07:30 PM 64.4°F18.0°C 60.5°F15.8°C 87% 7.6 mph WSW12.2 kmh WSW 15.9 mph25.6 kmh 29.89 in1012.2 mb 0.00 in0.0 mm 0.00 in0.0 mm 0.01 in0.3 mm
07:40 PM 64.4°F18.0°C 60.5°F15.8°C 87% 6.9 mph WSW11.1 kmh WSW 15.9 mph25.6 kmh 29.89 in1012.2 mb 0.00 in0.0 mm 0.00 in0.0 mm 0.01 in0.3 mm
07:50 PM 64.2°F17.9°C 60.3°F15.7°C 87% 6.9 mph WSW11.1 kmh WSW 13.6 mph21.9 kmh 29.90 in1012.5 mb 0.00 in0.0 mm 0.00 in0.0 mm 0.01 in0.3 mm
08:00 PM 64.2°F17.9°C 60.6°F15.9°C 88% 9.8 mph WSW15.8 kmh WSW 14.5 mph23.3 kmh 29.90 in1012.5 mb 0.00 in0.0 mm 0.00 in0.0 mm 0.01 in0.3 mm
08:10 PM 64.0°F17.8°C 59.8°F15.4°C 86% 7.6 mph WSW12.2 kmh WSW 16.8 mph27.0 kmh 29.90 in1012.5 mb 0.00 in0.0 mm 0.00 in0.0 mm 0.01 in0.3 mm
08:20 PM 64.0°F17.8°C 59.5°F15.3°C 85% 6.0 mph SW9.7 kmh SW 13.0 mph20.9 kmh 29.91 in1012.9 mb 0.00 in0.0 mm 0.00 in0.0 mm 0.01 in0.3 mm
08:30 PM 63.9°F17.7°C 59.0°F15.0°C 84% 12.1 mph SW19.5 kmh SW 16.8 mph27.0 kmh 29.91 in1012.9 mb 0.00 in0.0 mm 0.00 in0.0 mm 0.01 in0.3 mm
08:40 PM 63.9°F17.7°C 59.0°F15.0°C 84% 9.2 mph WSW14.8 kmh WSW 16.8 mph27.0 kmh 29.91 in1012.9 mb 0.00 in0.0 mm 0.00 in0.0 mm 0.01 in0.3 mm
08:50 PM 63.9°F17.7°C 58.6°F14.8°C 83% 8.3 mph WSW13.4 kmh WSW 14.5 mph23.3 kmh 29.91 in1012.9 mb 0.00 in0.0 mm 0.00 in0.0 mm 0.01 in0.3 mm
09:00 PM 63.9°F17.7°C 58.6°F14.8°C 83% 6.9 mph WSW11.1 kmh WSW 12.1 mph19.5 kmh 29.92 in1013.2 mb 0.00 in0.0 mm 0.00 in0.0 mm 0.01 in0.3 mm
09:10 PM 63.9°F17.7°C 58.6°F14.8°C 83% 6.0 mph WSW9.7 kmh WSW 13.6 mph21.9 kmh 29.92 in1013.2 mb 0.00 in0.0 mm 0.00 in0.0 mm 0.01 in0.3 mm
09:20 PM 63.9°F17.7°C 58.6°F14.8°C 83% 6.9 mph WSW11.1 kmh WSW 12.1 mph19.5 kmh 29.92 in1013.2 mb 0.00 in0.0 mm 0.00 in0.0 mm 0.01 in0.3 mm
09:30 PM 63.7°F17.6°C 58.4°F14.7°C 83% 8.3 mph WSW13.4 kmh WSW 13.0 mph20.9 kmh 29.92 in1013.2 mb 0.00 in0.0 mm 0.00 in0.0 mm 0.01 in0.3 mm
09:40 PM 63.9°F17.7°C 58.6°F14.8°C 83% 8.3 mph SW13.4 kmh SW 16.8 mph27.0 kmh 29.92 in1013.2 mb 0.00 in0.0 mm 0.00 in0.0 mm 0.01 in0.3 mm
09:50 PM 63.9°F17.7°C 58.6°F14.8°C 83% 9.8 mph WNW15.8 kmh WNW 13.6 mph21.9 kmh 29.93 in1013.5 mb 0.00 in0.0 mm 0.00 in0.0 mm 0.01 in0.3 mm
10:00 PM 63.9°F17.7°C 59.6°F15.3°C 86% 5.4 mph WSW8.7 kmh WSW 13.0 mph20.9 kmh 29.93 in1013.5 mb 0.00 in0.0 mm 0.00 in0.0 mm 0.01 in0.3 mm
10:10 PM 63.3°F17.4°C 60.0°F15.6°C 89% 9.2 mph SW14.8 kmh SW 13.6 mph21.9 kmh 29.93 in1013.5 mb 0.00 in0.0 mm 0.00 in0.0 mm 0.01 in0.3 mm
10:20 PM 63.1°F17.3°C 59.2°F15.1°C 87% 9.2 mph SW14.8 kmh SW 13.0 mph20.9 kmh 29.93 in1013.5 mb 0.00 in0.0 mm 0.00 in0.0 mm 0.01 in0.3 mm
10:30 PM 63.3°F17.4°C 58.4°F14.7°C 84% 7.6 mph SW12.2 kmh SW 13.0 mph20.9 kmh 29.94 in1013.9 mb 0.00 in0.0 mm 0.00 in0.0 mm 0.01 in0.3 mm
10:40 PM 63.5°F17.5°C 58.6°F14.8°C 84% 9.2 mph WSW14.8 kmh WSW 13.6 mph21.9 kmh 29.93 in1013.5 mb 0.00 in0.0 mm 0.00 in0.0 mm 0.01 in0.3 mm
10:50 PM 62.8°F17.1°C 58.5°F14.7°C 86% 9.2 mph WSW14.8 kmh WSW 18.3 mph29.5 kmh 29.94 in1013.9 mb 0.00 in0.0 mm 0.00 in0.0 mm 0.01 in0.3 mm
11:00 PM 61.7°F16.5°C 59.4°F15.2°C 92% 2.2 mph WSW3.5 kmh WSW 13.6 mph21.9 kmh 29.94 in1013.9 mb 0.00 in0.0 mm 0.00 in0.0 mm 0.01 in0.3 mm
11:10 PM 61.2°F16.2°C 59.7°F15.4°C 95% Calm Calm 7.6 mph12.2 kmh 29.93 in1013.5 mb 0.00 in0.0 mm 0.00 in0.0 mm 0.01 in0.3 mm
11:20 PM 61.2°F16.2°C 60.0°F15.6°C 96% 2.2 mph SW3.5 kmh SW 9.2 mph14.8 kmh 29.93 in1013.5 mb 0.00 in0.0 mm 0.00 in0.0 mm 0.01 in0.3 mm
11:30 PM 61.5°F16.4°C 59.5°F15.3°C 93% 5.4 mph WSW8.7 kmh WSW 10.7 mph17.2 kmh 29.93 in1013.5 mb 0.00 in0.0 mm 0.00 in0.0 mm 0.01 in0.3 mm
11:40 PM 62.2°F16.8°C 59.0°F15.0°C 89% 3.1 mph W5.0 kmh W 9.8 mph15.8 kmh 29.93 in1013.5 mb 0.00 in0.0 mm 0.00 in0.0 mm 0.01 in0.3 mm
11:50 PM 62.6°F17.0°C 58.0°F14.4°C 85% 5.4 mph WSW8.7 kmh WSW 9.8 mph15.8 kmh 29.93 in1013.5 mb 0.00 in0.0 mm 0.00 in0.0 mm 0.01 in0.3 mm